createdAt,value
2023-04-14T00:01:29.690Z,85.20
2023-04-14T00:03:53.068Z,85.30
2023-04-14T00:06:16.394Z,84.60
2023-04-14T00:08:41.136Z,84.80
2023-04-14T00:11:05.137Z,85.30
2023-04-14T00:13:28.555Z,85.40
2023-04-14T00:15:52.150Z,85.40
2023-04-14T00:18:15.414Z,85.10
2023-04-14T00:20:38.673Z,85.80
2023-04-14T00:23:01.915Z,86.00
2023-04-14T00:25:26.547Z,86.00
2023-04-14T00:27:49.823Z,86.30
2023-04-14T00:30:14.005Z,86.40
2023-04-14T00:32:37.376Z,86.60
2023-04-14T00:35:03.281Z,86.70
2023-04-14T00:37:26.708Z,86.50
2023-04-14T00:39:49.985Z,86.50
2023-04-14T00:42:14.594Z,86.40
2023-04-14T00:44:37.854Z,86.30
2023-04-14T00:47:02.969Z,86.40
2023-04-14T00:49:26.821Z,86.10
2023-04-14T00:51:50.657Z,86.00
2023-04-14T00:54:16.265Z,86.20
2023-04-14T00:56:40.486Z,86.20
2023-04-14T00:59:05.859Z,86.40
2023-04-14T01:01:30.462Z,86.40
2023-04-14T01:03:54.094Z,86.50
2023-04-14T01:06:17.493Z,86.80
2023-04-14T01:08:40.946Z,86.90
2023-04-14T01:11:17.013Z,86.60
2023-04-14T01:13:50.589Z,86.70
2023-04-14T01:16:23.022Z,87.00
2023-04-14T01:18:56.267Z,87.00
2023-04-14T01:21:27.548Z,87.30
2023-04-14T01:24:08.718Z,87.40
2023-04-14T01:26:33.152Z,87.50
2023-04-14T01:29:28.150Z,87.70
2023-04-14T01:32:02.962Z,87.80
2023-04-14T01:34:35.292Z,87.60
2023-04-14T01:37:05.375Z,87.70
2023-04-14T01:39:42.731Z,87.70
2023-04-14T01:42:11.771Z,87.70
2023-04-14T01:44:36.257Z,87.70
2023-04-14T01:47:08.746Z,87.60
2023-04-14T01:49:36.748Z,87.60
2023-04-14T01:52:02.099Z,87.70
2023-04-14T01:54:26.230Z,87.80
2023-04-14T01:56:51.816Z,87.90
2023-04-14T01:59:17.023Z,88.00
2023-04-14T02:01:42.280Z,88.30
2023-04-14T02:06:32.911Z,88.50
2023-04-14T02:08:56.888Z,88.50
2023-04-14T02:11:21.675Z,88.40
2023-04-14T02:13:46.577Z,88.30
2023-04-14T02:16:11.828Z,88.50
2023-04-14T02:18:38.866Z,88.40
2023-04-14T02:21:05.806Z,88.60
2023-04-14T02:23:29.379Z,88.70
2023-04-14T02:25:58.493Z,88.80
2023-04-14T02:28:26.255Z,88.70
2023-04-14T02:30:52.754Z,88.70
2023-04-14T02:33:21.578Z,88.50
2023-04-14T02:35:48.771Z,88.40
2023-04-14T02:38:21.020Z,88.20
2023-04-14T02:40:46.096Z,88.20
2023-04-14T02:43:15.033Z,88.40
2023-04-14T02:45:42.264Z,88.50
2023-04-14T02:48:12.679Z,88.70
2023-04-14T02:50:38.490Z,88.70
2023-04-14T02:53:14.038Z,88.20
2023-04-14T02:55:38.676Z,89.10
2023-04-14T02:58:02.304Z,89.00
2023-04-14T03:00:28.183Z,89.20
2023-04-14T03:02:54.547Z,89.20
2023-04-14T03:05:18.518Z,89.00
2023-04-14T03:07:58.355Z,89.00
2023-04-14T03:10:24.277Z,89.10
2023-04-14T03:12:49.122Z,88.90
2023-04-14T03:15:13.203Z,89.00
2023-04-14T03:17:38.323Z,89.10
2023-04-14T03:20:03.669Z,88.90
2023-04-14T03:22:29.192Z,89.00
2023-04-14T03:24:57.063Z,89.20
2023-04-14T03:27:26.104Z,89.20
2023-04-14T03:29:53.328Z,89.20
2023-04-14T03:32:19.054Z,89.10
2023-04-14T03:34:46.447Z,89.30
2023-04-14T03:37:12.457Z,89.20
2023-04-14T03:39:39.797Z,89.30
2023-04-14T03:42:05.558Z,89.40
2023-04-14T03:44:35.597Z,89.50
2023-04-14T03:47:00.706Z,89.70
2023-04-14T03:49:27.178Z,89.80
2023-04-14T03:51:53.600Z,89.80
2023-04-14T03:54:18.744Z,89.80
2023-04-14T03:56:45.345Z,89.80
2023-04-14T03:59:13.230Z,89.70
2023-04-14T04:01:41.813Z,89.70
2023-04-14T04:04:08.350Z,89.60
2023-04-14T04:06:32.240Z,89.50
2023-04-14T04:08:59.129Z,89.40
2023-04-14T04:11:23.742Z,89.50
2023-04-14T04:13:50.381Z,89.50
2023-04-14T04:16:15.568Z,89.50
2023-04-14T04:18:46.187Z,89.90
2023-04-14T04:21:12.533Z,90.00
2023-04-14T04:23:38.541Z,90.10
2023-04-14T04:26:02.633Z,90.10
2023-04-14T04:28:33.484Z,90.20
2023-04-14T04:30:59.370Z,90.10
2023-04-14T04:33:23.963Z,90.20
2023-04-14T04:35:49.641Z,90.20
2023-04-14T04:38:12.957Z,90.20
2023-04-14T04:40:40.039Z,90.30
2023-04-14T04:43:10.025Z,90.30
2023-04-14T04:45:50.415Z,90.20
2023-04-14T04:48:13.789Z,90.00
2023-04-14T04:50:40.357Z,90.00
2023-04-14T04:53:06.374Z,90.00
2023-04-14T04:55:29.591Z,90.10
2023-04-14T04:57:52.919Z,90.10
2023-04-14T05:00:16.985Z,90.30
2023-04-14T05:02:40.387Z,90.40
2023-04-14T05:05:04.011Z,90.40
2023-04-14T05:07:27.393Z,90.40
2023-04-14T05:09:52.537Z,90.40
2023-04-14T05:12:16.107Z,90.30
2023-04-14T05:14:39.449Z,90.30
2023-04-14T05:17:04.192Z,90.40
2023-04-14T05:19:27.450Z,90.40
2023-04-14T05:21:50.760Z,90.50
2023-04-14T05:24:14.011Z,90.50
2023-04-14T05:26:57.745Z,90.60
2023-04-14T05:29:21.856Z,90.80
2023-04-14T05:31:45.225Z,90.70
2023-04-14T05:34:08.511Z,90.80
2023-04-14T05:36:32.234Z,90.90
2023-04-14T05:38:55.512Z,91.00
2023-04-14T05:41:18.767Z,90.90
2023-04-14T05:43:43.398Z,90.90
2023-04-14T05:46:06.975Z,91.00
2023-04-14T05:48:31.051Z,91.10
2023-04-14T05:50:54.396Z,91.10
2023-04-14T05:53:17.714Z,91.10
2023-04-14T05:55:42.154Z,91.00
2023-04-14T05:58:05.414Z,90.80
2023-04-14T06:00:30.961Z,90.60
2023-04-14T06:02:54.474Z,90.50
2023-04-14T06:05:18.183Z,90.20
2023-04-14T06:07:42.110Z,90.00
2023-04-14T06:10:06.896Z,89.60
2023-04-14T06:12:30.350Z,89.40
2023-04-14T06:14:53.677Z,89.20
2023-04-14T06:17:18.389Z,89.00
2023-04-14T06:19:41.838Z,88.20
2023-04-14T06:22:05.483Z,88.30
2023-04-14T06:24:28.706Z,87.80
2023-04-14T06:26:52.479Z,87.10
2023-04-14T06:29:15.697Z,86.60
2023-04-14T06:31:39.057Z,86.10
2023-04-14T06:34:03.828Z,85.00
2023-04-14T06:36:27.179Z,84.70
2023-04-14T06:38:50.627Z,84.50
2023-04-14T06:41:13.878Z,83.70
2023-04-14T06:43:37.175Z,83.70
2023-04-14T06:46:00.582Z,84.00
2023-04-14T06:48:23.861Z,82.50
2023-04-14T06:50:55.744Z,82.80
2023-04-14T06:53:19.046Z,82.30
2023-04-14T06:55:43.116Z,81.60
2023-04-14T06:58:06.445Z,80.10
2023-04-14T07:00:29.713Z,79.50
2023-04-14T07:02:53.151Z,78.90
2023-04-14T07:05:17.340Z,79.90
2023-04-14T07:07:42.217Z,79.90
2023-04-14T07:10:06.739Z,78.20
2023-04-14T07:12:30.317Z,77.40
2023-04-14T07:14:53.649Z,80.00
2023-04-14T07:17:16.949Z,80.10
2023-04-14T07:19:40.249Z,79.70
2023-04-14T07:22:03.582Z,79.40
2023-04-14T07:24:28.215Z,77.40
2023-04-14T07:26:51.470Z,75.20
2023-04-14T07:29:14.709Z,77.40
2023-04-14T07:31:39.680Z,77.70
2023-04-14T07:34:03.156Z,74.80
2023-04-14T07:36:26.975Z,74.10
2023-04-14T07:38:52.012Z,75.40
2023-04-14T07:41:17.119Z,76.00
2023-04-14T07:43:40.428Z,74.70
2023-04-14T07:46:05.512Z,71.90
2023-04-14T07:48:29.759Z,70.20
2023-04-14T07:50:52.981Z,73.00
2023-04-14T07:53:16.278Z,75.00
2023-04-14T07:55:39.567Z,72.50
2023-04-14T07:58:04.183Z,73.10
2023-04-14T08:00:27.587Z,70.30
2023-04-14T08:02:50.972Z,69.90
2023-04-14T08:05:14.464Z,68.90
2023-04-14T08:07:38.703Z,70.20
2023-04-14T08:10:02.067Z,71.70
2023-04-14T08:12:25.585Z,69.80
2023-04-14T08:14:50.156Z,70.40
2023-04-14T08:17:13.394Z,70.30
2023-04-14T08:19:36.961Z,69.40
2023-04-14T08:22:00.301Z,68.20
2023-04-14T08:24:23.568Z,67.10
2023-04-14T08:26:46.866Z,66.80
2023-04-14T08:29:10.112Z,66.80
2023-04-14T08:31:34.945Z,64.50
2023-04-14T08:33:58.237Z,66.40
2023-04-14T08:36:22.035Z,67.90
2023-04-14T08:38:45.519Z,65.00
2023-04-14T08:41:10.007Z,68.10
2023-04-14T08:43:33.309Z,64.40
2023-04-14T08:45:57.931Z,63.50
2023-04-14T08:48:25.561Z,62.60
2023-04-14T08:51:08.332Z,62.80
2023-04-14T08:53:33.429Z,62.80
2023-04-14T08:55:58.585Z,62.60
2023-04-14T08:58:22.375Z,62.20
2023-04-14T09:00:45.749Z,62.40
2023-04-14T09:03:09.983Z,64.00
2023-04-14T09:05:35.046Z,64.30
2023-04-14T09:07:59.153Z,64.00
2023-04-14T09:10:23.246Z,59.70
2023-04-14T09:12:47.159Z,59.10
2023-04-14T09:15:13.378Z,60.00
2023-04-14T09:17:37.539Z,60.10
2023-04-14T09:20:36.125Z,59.40
2023-04-14T09:22:46.312Z,57.90
2023-04-14T09:25:11.316Z,56.80
2023-04-14T09:27:35.130Z,58.30
2023-04-14T09:29:59.460Z,59.60
2023-04-14T09:32:23.687Z,55.60
2023-04-14T09:34:53.920Z,53.90
2023-04-14T09:37:18.740Z,56.90
2023-04-14T09:39:51.751Z,54.20
2023-04-14T09:42:15.047Z,55.40
2023-04-14T09:44:54.864Z,54.10
2023-04-14T09:47:22.585Z,54.10
2023-04-14T09:49:58.097Z,53.50
2023-04-14T09:52:21.430Z,56.50
2023-04-14T09:54:45.514Z,54.50
2023-04-14T09:57:10.299Z,52.90
2023-04-14T09:59:36.747Z,53.00
2023-04-14T10:02:02.032Z,54.10
2023-04-14T10:04:26.914Z,52.90
2023-04-14T10:06:50.521Z,53.40
2023-04-14T10:09:23.184Z,52.40
2023-04-14T10:11:46.416Z,54.40
2023-04-14T10:14:11.068Z,52.40
2023-04-14T10:16:35.068Z,52.30
2023-04-14T10:18:58.839Z,50.10
2023-04-14T10:21:23.156Z,53.40
2023-04-14T10:23:47.196Z,52.60
2023-04-14T10:26:12.546Z,51.80
2023-04-14T10:28:36.926Z,55.80
2023-04-14T10:31:03.195Z,48.40
2023-04-14T10:33:28.116Z,49.80
2023-04-14T10:36:00.607Z,50.90
2023-04-14T10:38:24.018Z,47.90
2023-04-14T10:40:48.071Z,46.20
2023-04-14T10:43:13.980Z,48.60
2023-04-14T10:45:54.881Z,48.50
2023-04-14T10:48:19.946Z,48.30
2023-04-14T10:50:48.996Z,50.70
2023-04-14T10:53:12.528Z,46.80
2023-04-14T10:55:52.289Z,50.50
2023-04-14T10:58:21.278Z,48.40
2023-04-14T11:00:44.595Z,48.00
2023-04-14T11:03:12.959Z,47.20
2023-04-14T11:05:44.246Z,48.70
2023-04-14T11:08:15.786Z,49.00
2023-04-14T11:10:39.434Z,47.20
2023-04-14T11:13:06.934Z,50.70
2023-04-14T11:15:46.677Z,47.80
2023-04-14T11:18:14.761Z,41.50
2023-04-14T11:20:42.095Z,43.30
2023-04-14T11:23:05.508Z,43.20
2023-04-14T11:25:28.789Z,42.80
2023-04-14T11:27:52.410Z,45.20
2023-04-14T11:30:17.918Z,46.70
2023-04-14T11:32:49.090Z,47.30
2023-04-14T11:35:13.057Z,44.60
2023-04-14T11:37:38.173Z,47.50
2023-04-14T11:40:01.470Z,42.80
2023-04-14T11:42:26.461Z,42.90
2023-04-14T11:44:58.455Z,41.60
2023-04-14T11:47:22.881Z,40.70
2023-04-14T11:49:46.133Z,41.60
2023-04-14T11:52:09.692Z,42.10
2023-04-14T11:54:38.404Z,46.90
2023-04-14T11:57:01.786Z,44.10
2023-04-14T11:59:25.274Z,40.50
2023-04-14T12:01:51.420Z,43.40
2023-04-14T12:04:14.926Z,44.10
2023-04-14T12:06:39.082Z,44.70
2023-04-14T12:09:03.898Z,43.20
2023-04-14T12:11:28.568Z,41.50
2023-04-14T12:13:52.773Z,43.80
2023-04-14T12:16:18.176Z,42.50
2023-04-14T12:18:41.881Z,42.20
2023-04-14T12:21:09.760Z,41.00
2023-04-14T12:23:37.095Z,44.70
2023-04-14T12:26:00.384Z,43.70
2023-04-14T12:28:28.971Z,45.30
2023-04-14T12:30:54.933Z,42.40
2023-04-14T12:33:18.341Z,40.40
2023-04-14T12:35:41.696Z,41.90
2023-04-14T12:38:12.617Z,44.30
2023-04-14T12:40:40.585Z,41.20
2023-04-14T12:43:03.915Z,40.90
2023-04-14T12:45:28.683Z,42.40
2023-04-14T12:47:56.858Z,41.40
2023-04-14T12:50:27.002Z,42.50
2023-04-14T12:52:50.330Z,39.90
2023-04-14T12:55:22.186Z,40.30
2023-04-14T12:57:45.421Z,39.70
2023-04-14T13:00:11.224Z,36.60
2023-04-14T13:02:36.321Z,34.50
2023-04-14T13:05:00.045Z,39.00
2023-04-14T13:07:23.410Z,40.50
2023-04-14T13:09:46.780Z,39.60
2023-04-14T13:12:10.141Z,39.40
2023-04-14T13:14:33.379Z,38.80
2023-04-14T13:16:56.662Z,39.80
2023-04-14T13:19:21.261Z,38.00
2023-04-14T13:21:44.542Z,36.10
2023-04-14T13:24:08.211Z,39.40
2023-04-14T13:26:31.528Z,36.30
2023-04-14T13:28:54.898Z,38.60
2023-04-14T13:31:18.809Z,42.10
2023-04-14T13:33:42.458Z,35.90
2023-04-14T13:36:08.557Z,42.40
2023-04-14T13:38:31.892Z,36.60
2023-04-14T13:40:55.202Z,36.40
2023-04-14T13:43:19.482Z,41.90
2023-04-14T13:45:42.822Z,37.90
2023-04-14T13:48:07.246Z,38.40
2023-04-14T13:50:30.865Z,39.30
2023-04-14T13:52:55.474Z,38.70
2023-04-14T13:55:19.506Z,36.50
2023-04-14T13:57:42.815Z,36.20
2023-04-14T14:00:09.689Z,39.20
2023-04-14T14:02:33.913Z,36.30
2023-04-14T14:04:57.322Z,35.40
2023-04-14T14:07:20.524Z,36.60
2023-04-14T14:09:45.867Z,36.90
2023-04-14T14:12:12.866Z,39.60
2023-04-14T14:14:36.129Z,35.00
2023-04-14T14:16:59.332Z,39.70
2023-04-14T14:19:22.988Z,35.00
2023-04-14T14:21:46.259Z,37.50
2023-04-14T14:24:09.810Z,35.90
2023-04-14T14:26:34.379Z,39.00
2023-04-14T14:28:57.744Z,37.60
2023-04-14T14:31:21.029Z,36.70
2023-04-14T14:33:44.335Z,38.40
2023-04-14T14:36:07.961Z,40.70
2023-04-14T14:38:31.297Z,38.80
2023-04-14T14:40:54.792Z,36.70
2023-04-14T14:43:19.487Z,36.40
2023-04-14T14:45:42.704Z,37.50
2023-04-14T14:48:06.674Z,41.10
2023-04-14T14:50:29.967Z,36.10
2023-04-14T14:52:56.050Z,37.40
2023-04-14T14:55:19.834Z,38.50
2023-04-14T14:57:43.122Z,38.10
2023-04-14T15:00:10.970Z,38.90
2023-04-14T15:02:34.460Z,40.40
2023-04-14T15:04:58.620Z,42.80
2023-04-14T15:07:21.885Z,36.50
2023-04-14T15:09:47.052Z,36.50
2023-04-14T15:12:10.823Z,37.00
2023-04-14T15:14:34.108Z,37.30
2023-04-14T15:16:59.014Z,34.40
2023-04-14T15:19:23.560Z,36.90
2023-04-14T15:21:46.929Z,35.60
2023-04-14T15:24:10.576Z,34.60
2023-04-14T15:26:33.907Z,34.90
2023-04-14T15:28:57.214Z,36.30
2023-04-14T15:31:20.728Z,34.50
2023-04-14T15:33:45.645Z,35.30
2023-04-14T15:36:08.981Z,37.00
2023-04-14T15:38:32.730Z,37.60
2023-04-14T15:40:56.044Z,36.40
2023-04-14T15:43:19.278Z,36.80
2023-04-14T15:45:42.635Z,33.40
2023-04-14T15:48:06.419Z,36.10
2023-04-14T15:50:31.208Z,35.70
2023-04-14T15:52:55.795Z,36.50
2023-04-14T15:55:19.077Z,32.50
2023-04-14T15:57:42.344Z,38.20
2023-04-14T16:00:08.040Z,35.70
2023-04-14T16:02:37.637Z,35.00
2023-04-14T16:05:01.252Z,30.80
2023-04-14T16:07:26.146Z,34.30
2023-04-14T16:09:49.952Z,32.70
2023-04-14T16:12:13.202Z,33.80
2023-04-14T16:14:36.512Z,32.30
2023-04-14T16:16:59.799Z,32.40
2023-04-14T16:19:23.385Z,33.40
2023-04-14T16:21:46.691Z,31.30
2023-04-14T16:24:11.546Z,34.90
2023-04-14T16:26:35.132Z,35.80
2023-04-14T16:28:58.463Z,34.00
2023-04-14T16:31:21.718Z,33.00
2023-04-14T16:33:45.263Z,32.70
2023-04-14T16:36:08.781Z,32.10
2023-04-14T16:38:32.123Z,34.60
2023-04-14T16:40:58.329Z,34.80
2023-04-14T16:43:21.717Z,34.00
2023-04-14T16:45:46.571Z,35.70
2023-04-14T16:48:09.843Z,33.90
2023-04-14T16:50:33.213Z,35.40
2023-04-14T16:52:56.598Z,34.20
2023-04-14T16:55:20.608Z,33.90
2023-04-14T16:57:45.229Z,34.50
2023-04-14T17:00:12.096Z,37.20
2023-04-14T17:02:37.938Z,34.70
2023-04-14T17:05:03.472Z,36.90
2023-04-14T17:07:26.814Z,37.30
2023-04-14T17:09:50.049Z,40.10
2023-04-14T17:12:13.505Z,36.20
2023-04-14T17:14:38.522Z,36.80
2023-04-14T17:17:02.762Z,37.10
2023-04-14T17:19:26.593Z,36.40
2023-04-14T17:21:50.303Z,35.30
2023-04-14T17:24:14.603Z,37.10
2023-04-14T17:26:37.948Z,36.70
2023-04-14T17:29:01.250Z,37.30
2023-04-14T17:31:26.485Z,37.60
2023-04-14T17:33:50.303Z,39.00
2023-04-14T17:36:16.568Z,36.90
2023-04-14T17:38:40.471Z,38.00
2023-04-14T17:41:03.951Z,37.50
2023-04-14T17:43:27.355Z,39.10
2023-04-14T17:45:50.820Z,42.10
2023-04-14T17:48:15.641Z,41.10
2023-04-14T17:50:39.176Z,46.00
2023-04-14T17:53:02.948Z,45.60
2023-04-14T17:55:26.292Z,47.50
2023-04-14T17:57:50.546Z,50.00
2023-04-14T18:00:16.907Z,48.50
2023-04-14T18:02:41.289Z,48.70
2023-04-14T18:05:06.776Z,48.70
2023-04-14T18:07:31.357Z,49.60
2023-04-14T18:09:54.779Z,49.20
2023-04-14T18:12:18.647Z,54.30
2023-04-14T18:14:44.588Z,53.20
2023-04-14T18:17:07.919Z,54.50
2023-04-14T18:19:31.190Z,53.70
2023-04-14T18:21:56.800Z,57.20
2023-04-14T18:26:46.335Z,56.70
2023-04-14T18:29:09.564Z,55.80
2023-04-14T18:31:32.953Z,55.20
2023-04-14T18:33:56.694Z,52.10
2023-04-14T18:36:19.975Z,50.50
2023-04-14T18:38:44.637Z,51.40
2023-04-14T18:41:08.344Z,54.10
2023-04-14T18:43:32.527Z,53.00
2023-04-14T18:45:55.838Z,54.50
2023-04-14T18:48:20.092Z,57.40
2023-04-14T18:50:44.214Z,55.20
2023-04-14T18:53:07.552Z,57.40
2023-04-14T18:55:44.740Z,58.50
2023-04-14T18:58:12.434Z,58.10
2023-04-14T19:00:36.377Z,59.20
2023-04-14T19:03:00.184Z,59.30
2023-04-14T19:05:25.227Z,58.80
2023-04-14T19:07:48.516Z,55.30
2023-04-14T19:10:11.910Z,56.50
2023-04-14T19:12:37.810Z,56.50
2023-04-14T19:15:02.644Z,56.50
2023-04-14T19:17:26.091Z,56.50
2023-04-14T19:19:50.317Z,57.50
2023-04-14T19:22:15.766Z,57.50
2023-04-14T19:24:39.047Z,59.00
2023-04-14T19:27:02.959Z,58.50
2023-04-14T19:29:28.108Z,58.50
2023-04-14T19:31:51.907Z,58.40
2023-04-14T19:34:15.499Z,59.80
2023-04-14T19:36:39.528Z,60.50
2023-04-14T19:39:03.937Z,59.60
2023-04-14T19:41:27.373Z,59.70
2023-04-14T19:43:51.963Z,59.80
2023-04-14T19:46:16.678Z,60.60
2023-04-14T19:48:40.467Z,60.60
2023-04-14T19:51:04.181Z,60.80
2023-04-14T19:53:27.979Z,61.70
2023-04-14T19:55:51.940Z,62.60
2023-04-14T19:58:15.691Z,63.20
2023-04-14T20:00:40.951Z,62.30
2023-04-14T20:03:05.865Z,62.50
2023-04-14T20:05:29.111Z,63.00
2023-04-14T20:07:52.969Z,62.50
2023-04-14T20:10:16.399Z,63.90
2023-04-14T20:12:40.322Z,64.50
2023-04-14T20:15:04.551Z,63.70
2023-04-14T20:17:28.611Z,65.10
2023-04-14T20:19:53.265Z,64.90
2023-04-14T20:22:16.560Z,63.50
2023-04-14T20:24:39.887Z,64.40
2023-04-14T20:27:04.351Z,65.80
2023-04-14T20:29:27.668Z,66.80
2023-04-14T20:31:51.459Z,67.60
2023-04-14T20:34:15.040Z,68.90
2023-04-14T20:36:40.107Z,67.50
2023-04-14T20:39:04.754Z,68.30
2023-04-14T20:41:28.066Z,69.30
2023-04-14T20:43:51.316Z,70.00
2023-04-14T20:46:15.642Z,70.30
2023-04-14T20:48:38.919Z,69.80
2023-04-14T20:51:02.500Z,71.00
2023-04-14T20:53:28.668Z,72.10
2023-04-14T20:55:56.219Z,72.80
2023-04-14T20:58:19.485Z,73.10
2023-04-14T21:00:43.401Z,72.40
2023-04-14T21:03:07.023Z,72.50
2023-04-14T21:05:30.450Z,73.30
2023-04-14T21:07:53.791Z,73.10
2023-04-14T21:10:18.498Z,73.10
2023-04-14T21:15:26.735Z,73.50
2023-04-14T21:15:47.041Z,74.40
2023-04-14T21:18:09.726Z,74.40
2023-04-14T21:20:33.364Z,74.40
2023-04-14T21:22:57.448Z,75.00
2023-04-14T21:25:22.159Z,75.60
2023-04-14T21:27:45.392Z,75.40
2023-04-14T21:30:10.742Z,75.30
2023-04-14T21:32:34.163Z,75.40
2023-04-14T21:34:57.497Z,75.50
2023-04-14T21:37:20.818Z,75.20
2023-04-14T21:39:44.378Z,76.30
2023-04-14T21:42:09.533Z,76.00
2023-04-14T21:44:32.768Z,76.50
2023-04-14T21:46:56.923Z,76.90
2023-04-14T21:49:20.174Z,77.10
2023-04-14T21:51:43.875Z,77.40
2023-04-14T21:54:07.614Z,76.90
2023-04-14T21:56:31.424Z,77.30
2023-04-14T21:58:56.276Z,77.90
2023-04-14T22:01:19.942Z,77.90
2023-04-14T22:03:43.453Z,78.40
2023-04-14T22:06:07.257Z,78.80
2023-04-14T22:08:30.527Z,78.40
2023-04-14T22:10:54.821Z,78.10
2023-04-14T22:13:18.486Z,78.90
2023-04-14T22:15:44.229Z,79.30
2023-04-14T22:18:07.419Z,79.30
2023-04-14T22:20:31.044Z,79.50
2023-04-14T22:22:54.504Z,79.70
2023-04-14T22:25:18.130Z,80.10
2023-04-14T22:27:41.466Z,80.20
2023-04-14T22:30:06.034Z,80.60
2023-04-14T22:32:30.780Z,80.20
2023-04-14T22:34:54.010Z,80.70
2023-04-14T22:37:18.070Z,80.40
2023-04-14T22:39:41.855Z,80.70
2023-04-14T22:42:05.268Z,80.70
2023-04-14T22:44:28.525Z,80.90
2023-04-14T22:46:51.768Z,80.50
2023-04-14T22:49:16.428Z,80.60
2023-04-14T22:51:39.646Z,80.50
2023-04-14T22:54:02.896Z,79.80
2023-04-14T22:56:26.420Z,80.20
2023-04-14T22:58:49.649Z,80.10
2023-04-14T23:01:22.002Z,79.50
2023-04-14T23:03:47.039Z,79.20
2023-04-14T23:06:11.882Z,79.90
2023-04-14T23:08:35.203Z,79.00
2023-04-14T23:10:58.460Z,78.20
2023-04-14T23:13:22.179Z,77.90
2023-04-14T23:15:45.607Z,78.70
2023-04-14T23:18:09.381Z,78.50
2023-04-14T23:20:32.741Z,78.30
2023-04-14T23:22:57.771Z,78.40
2023-04-14T23:25:21.000Z,78.80
2023-04-14T23:27:44.633Z,78.90
2023-04-14T23:30:10.294Z,79.70
2023-04-14T23:32:34.168Z,80.30
2023-04-14T23:34:57.676Z,80.40
2023-04-14T23:37:21.098Z,80.00
2023-04-14T23:39:46.893Z,80.10
2023-04-14T23:42:10.186Z,80.20
2023-04-14T23:44:33.421Z,81.30
2023-04-14T23:46:56.668Z,81.10
2023-04-14T23:49:23.742Z,81.40
2023-04-14T23:51:48.095Z,81.40
2023-04-14T23:54:11.551Z,81.10
2023-04-14T23:56:36.580Z,81.60
2023-04-14T23:59:00.676Z,81.90
